sensor_id;sensor_type;location;lat;lon;timestamp;P1;durP1;ratioP1;P2;durP2;ratioP2
16320;SDS011;8269;50.990;4.494;2022-12-07T00:01:17;30.67;;;24.50;;
16320;SDS011;8269;50.990;4.494;2022-12-07T00:03:48;26.97;;;22.17;;
16320;SDS011;8269;50.990;4.494;2022-12-07T00:06:16;28.43;;;22.87;;
16320;SDS011;8269;50.990;4.494;2022-12-07T00:08:42;28.10;;;23.10;;
16320;SDS011;8269;50.990;4.494;2022-12-07T00:11:09;27.53;;;23.47;;
16320;SDS011;8269;50.990;4.494;2022-12-07T00:13:36;32.80;;;25.30;;
16320;SDS011;8269;50.990;4.494;2022-12-07T00:16:03;33.97;;;23.50;;
16320;SDS011;8269;50.990;4.494;2022-12-07T00:18:34;28.87;;;24.47;;
16320;SDS011;8269;50.990;4.494;2022-12-07T00:21:04;30.47;;;23.93;;
16320;SDS011;8269;50.990;4.494;2022-12-07T00:23:47;27.50;;;22.67;;
16320;SDS011;8269;50.990;4.494;2022-12-07T00:26:16;29.57;;;24.23;;
16320;SDS011;8269;50.990;4.494;2022-12-07T00:28:47;28.80;;;23.23;;
16320;SDS011;8269;50.990;4.494;2022-12-07T00:31:18;28.70;;;24.13;;
16320;SDS011;8269;50.990;4.494;2022-12-07T00:33:46;32.03;;;25.87;;
16320;SDS011;8269;50.990;4.494;2022-12-07T00:36:13;32.30;;;25.63;;
16320;SDS011;8269;50.990;4.494;2022-12-07T00:38:40;31.57;;;25.17;;
16320;SDS011;8269;50.990;4.494;2022-12-07T00:41:08;35.90;;;27.67;;
16320;SDS011;8269;50.990;4.494;2022-12-07T00:43:39;30.70;;;26.10;;
16320;SDS011;8269;50.990;4.494;2022-12-07T00:46:06;34.97;;;27.17;;
16320;SDS011;8269;50.990;4.494;2022-12-07T00:48:32;31.77;;;26.47;;
16320;SDS011;8269;50.990;4.494;2022-12-07T00:50:57;32.00;;;26.63;;
16320;SDS011;8269;50.990;4.494;2022-12-07T00:53:23;32.90;;;27.53;;
16320;SDS011;8269;50.990;4.494;2022-12-07T00:55:49;31.83;;;27.93;;
16320;SDS011;8269;50.990;4.494;2022-12-07T00:58:15;35.47;;;27.80;;
16320;SDS011;8269;50.990;4.494;2022-12-07T01:00:41;34.97;;;28.10;;
16320;SDS011;8269;50.990;4.494;2022-12-07T01:03:08;34.33;;;27.30;;
16320;SDS011;8269;50.990;4.494;2022-12-07T01:05:36;35.97;;;29.03;;
16320;SDS011;8269;50.990;4.494;2022-12-07T01:08:02;35.63;;;29.73;;
16320;SDS011;8269;50.990;4.494;2022-12-07T01:10:28;36.40;;;28.83;;
16320;SDS011;8269;50.990;4.494;2022-12-07T01:12:55;38.97;;;30.30;;
16320;SDS011;8269;50.990;4.494;2022-12-07T01:15:21;35.93;;;28.93;;
16320;SDS011;8269;50.990;4.494;2022-12-07T01:17:47;36.27;;;29.47;;
16320;SDS011;8269;50.990;4.494;2022-12-07T01:20:13;36.17;;;29.87;;
16320;SDS011;8269;50.990;4.494;2022-12-07T01:22:40;36.63;;;29.73;;
16320;SDS011;8269;50.990;4.494;2022-12-07T01:25:07;39.23;;;28.73;;
16320;SDS011;8269;50.990;4.494;2022-12-07T01:27:34;36.87;;;29.80;;
16320;SDS011;8269;50.990;4.494;2022-12-07T01:30:00;35.70;;;28.27;;
16320;SDS011;8269;50.990;4.494;2022-12-07T01:32:28;33.93;;;28.73;;
16320;SDS011;8269;50.990;4.494;2022-12-07T01:34:54;38.10;;;28.83;;
16320;SDS011;8269;50.990;4.494;2022-12-07T01:37:19;33.50;;;28.83;;
16320;SDS011;8269;50.990;4.494;2022-12-07T01:39:48;31.40;;;27.63;;
16320;SDS011;8269;50.990;4.494;2022-12-07T01:42:14;31.17;;;27.37;;
16320;SDS011;8269;50.990;4.494;2022-12-07T01:47:47;33.43;;;26.90;;
16320;SDS011;8269;50.990;4.494;2022-12-07T01:50:18;32.63;;;27.17;;
16320;SDS011;8269;50.990;4.494;2022-12-07T01:52:46;31.00;;;25.87;;
16320;SDS011;8269;50.990;4.494;2022-12-07T01:55:14;30.90;;;25.97;;
16320;SDS011;8269;50.990;4.494;2022-12-07T01:57:42;34.97;;;26.93;;
16320;SDS011;8269;50.990;4.494;2022-12-07T02:00:11;33.00;;;27.17;;
16320;SDS011;8269;50.990;4.494;2022-12-07T02:02:37;33.70;;;27.87;;
16320;SDS011;8269;50.990;4.494;2022-12-07T02:05:08;33.03;;;27.20;;
16320;SDS011;8269;50.990;4.494;2022-12-07T02:07:34;32.53;;;27.03;;
16320;SDS011;8269;50.990;4.494;2022-12-07T02:10:12;32.37;;;28.20;;
16320;SDS011;8269;50.990;4.494;2022-12-07T02:12:38;35.73;;;28.73;;
16320;SDS011;8269;50.990;4.494;2022-12-07T02:15:04;32.97;;;27.90;;
16320;SDS011;8269;50.990;4.494;2022-12-07T02:17:36;32.47;;;27.37;;
16320;SDS011;8269;50.990;4.494;2022-12-07T02:31:39;34.20;;;27.27;;
16320;SDS011;8269;50.990;4.494;2022-12-07T02:34:12;32.10;;;27.73;;
16320;SDS011;8269;50.990;4.494;2022-12-07T02:36:46;33.80;;;27.57;;
16320;SDS011;8269;50.990;4.494;2022-12-07T02:39:32;34.17;;;27.37;;
16320;SDS011;8269;50.990;4.494;2022-12-07T02:42:01;33.00;;;27.60;;
16320;SDS011;8269;50.990;4.494;2022-12-07T02:44:32;33.43;;;28.13;;
16320;SDS011;8269;50.990;4.494;2022-12-07T02:47:01;34.87;;;29.23;;
16320;SDS011;8269;50.990;4.494;2022-12-07T02:49:30;37.37;;;28.87;;
16320;SDS011;8269;50.990;4.494;2022-12-07T02:51:56;35.43;;;28.60;;
16320;SDS011;8269;50.990;4.494;2022-12-07T02:54:21;35.77;;;29.63;;
16320;SDS011;8269;50.990;4.494;2022-12-07T03:14:00;36.37;;;27.23;;
16320;SDS011;8269;50.990;4.494;2022-12-07T03:17:07;32.17;;;26.17;;
16320;SDS011;8269;50.990;4.494;2022-12-07T03:19:39;34.23;;;27.63;;
16320;SDS011;8269;50.990;4.494;2022-12-07T03:22:07;34.10;;;27.40;;
16320;SDS011;8269;50.990;4.494;2022-12-07T03:24:37;32.73;;;26.03;;
16320;SDS011;8269;50.990;4.494;2022-12-07T03:27:14;30.57;;;25.17;;
16320;SDS011;8269;50.990;4.494;2022-12-07T03:29:56;31.33;;;26.03;;
16320;SDS011;8269;50.990;4.494;2022-12-07T03:32:31;30.60;;;26.27;;
16320;SDS011;8269;50.990;4.494;2022-12-07T03:35:03;37.13;;;30.03;;
16320;SDS011;8269;50.990;4.494;2022-12-07T03:37:40;33.53;;;26.77;;
16320;SDS011;8269;50.990;4.494;2022-12-07T03:40:16;31.47;;;25.53;;
16320;SDS011;8269;50.990;4.494;2022-12-07T03:42:47;29.47;;;24.90;;
16320;SDS011;8269;50.990;4.494;2022-12-07T03:45:14;29.90;;;24.63;;
16320;SDS011;8269;50.990;4.494;2022-12-07T03:50:21;28.93;;;23.97;;
16320;SDS011;8269;50.990;4.494;2022-12-07T03:52:53;32.07;;;24.57;;
16320;SDS011;8269;50.990;4.494;2022-12-07T03:55:44;32.57;;;23.90;;
16320;SDS011;8269;50.990;4.494;2022-12-07T03:58:14;32.03;;;22.60;;
16320;SDS011;8269;50.990;4.494;2022-12-07T04:00:43;35.50;;;23.57;;
16320;SDS011;8269;50.990;4.494;2022-12-07T04:03:10;30.57;;;22.67;;
16320;SDS011;8269;50.990;4.494;2022-12-07T04:05:36;30.27;;;22.33;;
16320;SDS011;8269;50.990;4.494;2022-12-07T04:08:02;26.60;;;22.47;;
16320;SDS011;8269;50.990;4.494;2022-12-07T04:10:28;27.83;;;22.60;;
16320;SDS011;8269;50.990;4.494;2022-12-07T04:12:54;30.27;;;21.10;;
16320;SDS011;8269;50.990;4.494;2022-12-07T04:15:20;34.33;;;23.33;;
16320;SDS011;8269;50.990;4.494;2022-12-07T04:17:46;30.27;;;23.37;;
16320;SDS011;8269;50.990;4.494;2022-12-07T04:20:12;32.27;;;23.87;;
16320;SDS011;8269;50.990;4.494;2022-12-07T04:22:37;33.30;;;24.27;;
16320;SDS011;8269;50.990;4.494;2022-12-07T04:25:03;29.07;;;23.03;;
16320;SDS011;8269;50.990;4.494;2022-12-07T04:27:29;29.97;;;23.17;;
16320;SDS011;8269;50.990;4.494;2022-12-07T04:29:55;27.30;;;22.23;;
16320;SDS011;8269;50.990;4.494;2022-12-07T04:32:21;31.53;;;24.70;;
16320;SDS011;8269;50.990;4.494;2022-12-07T04:34:47;33.20;;;24.43;;
16320;SDS011;8269;50.990;4.494;2022-12-07T04:37:12;33.50;;;23.37;;
16320;SDS011;8269;50.990;4.494;2022-12-07T04:39:38;34.23;;;23.77;;
16320;SDS011;8269;50.990;4.494;2022-12-07T04:42:04;27.93;;;22.33;;
16320;SDS011;8269;50.990;4.494;2022-12-07T04:44:30;35.23;;;23.27;;
16320;SDS011;8269;50.990;4.494;2022-12-07T04:46:56;32.43;;;22.30;;
16320;SDS011;8269;50.990;4.494;2022-12-07T04:49:22;32.17;;;21.97;;
16320;SDS011;8269;50.990;4.494;2022-12-07T04:51:49;27.47;;;22.00;;
16320;SDS011;8269;50.990;4.494;2022-12-07T04:54:15;29.13;;;23.00;;
16320;SDS011;8269;50.990;4.494;2022-12-07T04:56:41;31.53;;;20.80;;
16320;SDS011;8269;50.990;4.494;2022-12-07T04:59:09;34.17;;;22.87;;
16320;SDS011;8269;50.990;4.494;2022-12-07T05:01:35;34.73;;;23.50;;
16320;SDS011;8269;50.990;4.494;2022-12-07T05:04:01;30.67;;;23.73;;
16320;SDS011;8269;50.990;4.494;2022-12-07T05:06:27;32.53;;;21.97;;
16320;SDS011;8269;50.990;4.494;2022-12-07T05:08:53;29.67;;;21.57;;
16320;SDS011;8269;50.990;4.494;2022-12-07T05:11:19;31.13;;;22.43;;
16320;SDS011;8269;50.990;4.494;2022-12-07T05:14:12;30.13;;;21.87;;
16320;SDS011;8269;50.990;4.494;2022-12-07T05:16:43;27.03;;;22.03;;
16320;SDS011;8269;50.990;4.494;2022-12-07T05:19:10;25.13;;;21.60;;
16320;SDS011;8269;50.990;4.494;2022-12-07T05:21:36;29.87;;;22.37;;
16320;SDS011;8269;50.990;4.494;2022-12-07T05:24:02;31.10;;;22.37;;
16320;SDS011;8269;50.990;4.494;2022-12-07T05:26:29;31.83;;;21.57;;
16320;SDS011;8269;50.990;4.494;2022-12-07T05:28:55;30.07;;;21.23;;
16320;SDS011;8269;50.990;4.494;2022-12-07T05:31:21;30.20;;;20.93;;
16320;SDS011;8269;50.990;4.494;2022-12-07T05:33:48;29.67;;;22.13;;
16320;SDS011;8269;50.990;4.494;2022-12-07T05:36:13;26.57;;;21.23;;
16320;SDS011;8269;50.990;4.494;2022-12-07T05:38:39;28.77;;;21.20;;
16320;SDS011;8269;50.990;4.494;2022-12-07T05:41:06;27.13;;;21.10;;
16320;SDS011;8269;50.990;4.494;2022-12-07T05:43:52;32.33;;;22.73;;
16320;SDS011;8269;50.990;4.494;2022-12-07T05:46:18;29.50;;;22.53;;
16320;SDS011;8269;50.990;4.494;2022-12-07T05:48:44;28.33;;;22.53;;
16320;SDS011;8269;50.990;4.494;2022-12-07T05:51:09;34.23;;;22.90;;
16320;SDS011;8269;50.990;4.494;2022-12-07T05:53:35;34.90;;;24.57;;
16320;SDS011;8269;50.990;4.494;2022-12-07T05:56:00;37.03;;;24.13;;
16320;SDS011;8269;50.990;4.494;2022-12-07T05:58:26;32.13;;;22.60;;
16320;SDS011;8269;50.990;4.494;2022-12-07T06:01:10;36.40;;;22.23;;
16320;SDS011;8269;50.990;4.494;2022-12-07T06:03:36;27.93;;;22.73;;
16320;SDS011;8269;50.990;4.494;2022-12-07T06:06:01;31.77;;;22.47;;
16320;SDS011;8269;50.990;4.494;2022-12-07T06:08:27;28.63;;;22.13;;
16320;SDS011;8269;50.990;4.494;2022-12-07T06:10:53;31.30;;;23.87;;
16320;SDS011;8269;50.990;4.494;2022-12-07T06:13:38;27.70;;;22.03;;
16320;SDS011;8269;50.990;4.494;2022-12-07T06:16:04;30.57;;;22.70;;
16320;SDS011;8269;50.990;4.494;2022-12-07T06:18:30;30.07;;;22.10;;
16320;SDS011;8269;50.990;4.494;2022-12-07T06:20:55;29.47;;;22.93;;
16320;SDS011;8269;50.990;4.494;2022-12-07T06:23:21;32.43;;;24.40;;
16320;SDS011;8269;50.990;4.494;2022-12-07T06:25:46;33.63;;;23.40;;
16320;SDS011;8269;50.990;4.494;2022-12-07T06:28:12;30.83;;;22.80;;
16320;SDS011;8269;50.990;4.494;2022-12-07T06:30:38;29.47;;;23.83;;
16320;SDS011;8269;50.990;4.494;2022-12-07T06:33:03;32.37;;;23.43;;
16320;SDS011;8269;50.990;4.494;2022-12-07T06:35:29;28.93;;;22.90;;
16320;SDS011;8269;50.990;4.494;2022-12-07T06:37:58;34.30;;;23.53;;
16320;SDS011;8269;50.990;4.494;2022-12-07T06:40:23;32.43;;;24.50;;
16320;SDS011;8269;50.990;4.494;2022-12-07T06:42:49;33.70;;;25.00;;
16320;SDS011;8269;50.990;4.494;2022-12-07T06:45:14;31.37;;;24.63;;
16320;SDS011;8269;50.990;4.494;2022-12-07T06:47:40;34.67;;;24.57;;
16320;SDS011;8269;50.990;4.494;2022-12-07T06:50:06;32.87;;;24.80;;
16320;SDS011;8269;50.990;4.494;2022-12-07T06:52:32;31.93;;;25.73;;
16320;SDS011;8269;50.990;4.494;2022-12-07T06:54:58;34.33;;;24.70;;
16320;SDS011;8269;50.990;4.494;2022-12-07T06:57:24;40.07;;;27.50;;
16320;SDS011;8269;50.990;4.494;2022-12-07T06:59:50;32.70;;;24.87;;
16320;SDS011;8269;50.990;4.494;2022-12-07T07:02:16;31.03;;;25.47;;
16320;SDS011;8269;50.990;4.494;2022-12-07T07:04:42;32.40;;;24.83;;
16320;SDS011;8269;50.990;4.494;2022-12-07T07:07:07;31.80;;;25.60;;
16320;SDS011;8269;50.990;4.494;2022-12-07T07:09:33;31.93;;;25.57;;
16320;SDS011;8269;50.990;4.494;2022-12-07T07:11:59;37.60;;;28.87;;
16320;SDS011;8269;50.990;4.494;2022-12-07T07:14:25;34.17;;;27.10;;
16320;SDS011;8269;50.990;4.494;2022-12-07T07:16:51;33.17;;;26.07;;
16320;SDS011;8269;50.990;4.494;2022-12-07T07:19:16;31.33;;;25.67;;
16320;SDS011;8269;50.990;4.494;2022-12-07T07:21:42;33.70;;;24.97;;
16320;SDS011;8269;50.990;4.494;2022-12-07T07:24:08;35.30;;;26.23;;
16320;SDS011;8269;50.990;4.494;2022-12-07T07:26:36;37.53;;;27.00;;
16320;SDS011;8269;50.990;4.494;2022-12-07T07:29:02;30.87;;;25.60;;
16320;SDS011;8269;50.990;4.494;2022-12-07T07:31:28;31.30;;;26.17;;
16320;SDS011;8269;50.990;4.494;2022-12-07T07:33:53;32.67;;;26.50;;
16320;SDS011;8269;50.990;4.494;2022-12-07T07:36:19;32.47;;;26.27;;
16320;SDS011;8269;50.990;4.494;2022-12-07T07:38:44;36.27;;;27.03;;
16320;SDS011;8269;50.990;4.494;2022-12-07T07:41:13;34.93;;;26.87;;
16320;SDS011;8269;50.990;4.494;2022-12-07T07:43:38;36.33;;;27.93;;
16320;SDS011;8269;50.990;4.494;2022-12-07T07:46:04;36.17;;;27.93;;
16320;SDS011;8269;50.990;4.494;2022-12-07T07:48:29;41.20;;;28.57;;
16320;SDS011;8269;50.990;4.494;2022-12-07T07:50:55;35.40;;;28.37;;
16320;SDS011;8269;50.990;4.494;2022-12-07T07:53:21;35.53;;;27.40;;
16320;SDS011;8269;50.990;4.494;2022-12-07T07:55:53;34.33;;;27.93;;
16320;SDS011;8269;50.990;4.494;2022-12-07T07:58:20;40.80;;;28.30;;
16320;SDS011;8269;50.990;4.494;2022-12-07T08:00:45;42.17;;;28.67;;
16320;SDS011;8269;50.990;4.494;2022-12-07T08:03:11;40.37;;;29.47;;
16320;SDS011;8269;50.990;4.494;2022-12-07T08:05:37;41.53;;;30.67;;
16320;SDS011;8269;50.990;4.494;2022-12-07T08:08:03;40.40;;;30.30;;
16320;SDS011;8269;50.990;4.494;2022-12-07T08:10:29;38.53;;;30.70;;
16320;SDS011;8269;50.990;4.494;2022-12-07T08:12:57;39.90;;;29.87;;
16320;SDS011;8269;50.990;4.494;2022-12-07T08:15:45;39.13;;;29.77;;
16320;SDS011;8269;50.990;4.494;2022-12-07T08:18:13;37.67;;;29.33;;
16320;SDS011;8269;50.990;4.494;2022-12-07T08:20:39;36.67;;;29.27;;
16320;SDS011;8269;50.990;4.494;2022-12-07T08:23:09;48.47;;;30.93;;
16320;SDS011;8269;50.990;4.494;2022-12-07T08:25:36;41.03;;;30.43;;
16320;SDS011;8269;50.990;4.494;2022-12-07T08:28:03;39.47;;;30.63;;
16320;SDS011;8269;50.990;4.494;2022-12-07T08:30:29;38.43;;;31.07;;
16320;SDS011;8269;50.990;4.494;2022-12-07T08:32:55;37.87;;;30.63;;
16320;SDS011;8269;50.990;4.494;2022-12-07T08:35:22;45.07;;;35.27;;
16320;SDS011;8269;50.990;4.494;2022-12-07T08:37:47;45.50;;;33.73;;
16320;SDS011;8269;50.990;4.494;2022-12-07T08:40:13;41.67;;;31.40;;
16320;SDS011;8269;50.990;4.494;2022-12-07T08:42:44;42.67;;;31.53;;
16320;SDS011;8269;50.990;4.494;2022-12-07T08:45:15;43.23;;;33.13;;
16320;SDS011;8269;50.990;4.494;2022-12-07T08:47:43;39.27;;;29.63;;
16320;SDS011;8269;50.990;4.494;2022-12-07T08:50:25;34.50;;;27.07;;
16320;SDS011;8269;50.990;4.494;2022-12-07T08:52:52;38.17;;;27.53;;
16320;SDS011;8269;50.990;4.494;2022-12-07T08:55:21;30.00;;;24.67;;
16320;SDS011;8269;50.990;4.494;2022-12-07T08:57:48;32.87;;;24.70;;
16320;SDS011;8269;50.990;4.494;2022-12-07T09:00:14;30.83;;;25.70;;
16320;SDS011;8269;50.990;4.494;2022-12-07T09:02:42;33.77;;;25.53;;
16320;SDS011;8269;50.990;4.494;2022-12-07T09:05:09;30.57;;;22.93;;
16320;SDS011;8269;50.990;4.494;2022-12-07T09:07:35;32.57;;;24.03;;
16320;SDS011;8269;50.990;4.494;2022-12-07T09:10:05;29.93;;;23.63;;
16320;SDS011;8269;50.990;4.494;2022-12-07T09:12:32;28.73;;;22.70;;
16320;SDS011;8269;50.990;4.494;2022-12-07T09:14:58;31.13;;;22.37;;
16320;SDS011;8269;50.990;4.494;2022-12-07T09:17:25;33.37;;;21.57;;
16320;SDS011;8269;50.990;4.494;2022-12-07T09:19:51;32.70;;;24.37;;
16320;SDS011;8269;50.990;4.494;2022-12-07T09:22:17;36.00;;;25.10;;
16320;SDS011;8269;50.990;4.494;2022-12-07T09:24:43;35.93;;;27.50;;
16320;SDS011;8269;50.990;4.494;2022-12-07T09:27:13;30.67;;;21.70;;
16320;SDS011;8269;50.990;4.494;2022-12-07T09:29:39;27.50;;;18.90;;
16320;SDS011;8269;50.990;4.494;2022-12-07T09:32:05;25.43;;;17.20;;
16320;SDS011;8269;50.990;4.494;2022-12-07T09:34:36;19.43;;;16.43;;
16320;SDS011;8269;50.990;4.494;2022-12-07T09:37:04;26.93;;;17.03;;
16320;SDS011;8269;50.990;4.494;2022-12-07T09:39:31;22.00;;;16.53;;
16320;SDS011;8269;50.990;4.494;2022-12-07T09:41:57;23.40;;;15.97;;
16320;SDS011;8269;50.990;4.494;2022-12-07T09:44:24;18.57;;;14.20;;
16320;SDS011;8269;50.990;4.494;2022-12-07T09:46:51;25.10;;;15.03;;
16320;SDS011;8269;50.990;4.494;2022-12-07T09:49:19;23.73;;;16.23;;
16320;SDS011;8269;50.990;4.494;2022-12-07T09:51:57;22.93;;;15.90;;
16320;SDS011;8269;50.990;4.494;2022-12-07T09:54:43;21.83;;;15.80;;
16320;SDS011;8269;50.990;4.494;2022-12-07T09:57:13;23.87;;;15.90;;
16320;SDS011;8269;50.990;4.494;2022-12-07T09:59:40;22.43;;;15.87;;
16320;SDS011;8269;50.990;4.494;2022-12-07T10:02:19;22.77;;;14.73;;
16320;SDS011;8269;50.990;4.494;2022-12-07T10:05:10;22.07;;;15.33;;
16320;SDS011;8269;50.990;4.494;2022-12-07T10:07:40;24.07;;;15.33;;
16320;SDS011;8269;50.990;4.494;2022-12-07T10:10:12;22.07;;;14.60;;
16320;SDS011;8269;50.990;4.494;2022-12-07T10:12:52;21.63;;;13.73;;
16320;SDS011;8269;50.990;4.494;2022-12-07T10:15:46;21.40;;;14.67;;
16320;SDS011;8269;50.990;4.494;2022-12-07T10:18:26;20.30;;;12.80;;
16320;SDS011;8269;50.990;4.494;2022-12-07T10:23:32;17.00;;;12.17;;
16320;SDS011;8269;50.990;4.494;2022-12-07T10:28:53;15.20;;;10.93;;
16320;SDS011;8269;50.990;4.494;2022-12-07T10:31:22;14.03;;;9.47;;
16320;SDS011;8269;50.990;4.494;2022-12-07T10:39:14;17.33;;;8.90;;
16320;SDS011;8269;50.990;4.494;2022-12-07T10:42:02;14.13;;;9.13;;
16320;SDS011;8269;50.990;4.494;2022-12-07T10:44:31;14.80;;;9.83;;
16320;SDS011;8269;50.990;4.494;2022-12-07T10:50:14;15.13;;;9.00;;
16320;SDS011;8269;50.990;4.494;2022-12-07T11:18:52;13.67;;;8.10;;
16320;SDS011;8269;50.990;4.494;2022-12-07T11:21:57;12.50;;;8.30;;
16320;SDS011;8269;50.990;4.494;2022-12-07T11:27:28;14.63;;;8.47;;
16320;SDS011;8269;50.990;4.494;2022-12-07T11:30:08;11.27;;;7.80;;
16320;SDS011;8269;50.990;4.494;2022-12-07T11:32:57;13.40;;;8.77;;
16320;SDS011;8269;50.990;4.494;2022-12-07T11:38:22;14.23;;;7.83;;
16320;SDS011;8269;50.990;4.494;2022-12-07T11:40:58;11.83;;;6.77;;
16320;SDS011;8269;50.990;4.494;2022-12-07T11:43:37;10.07;;;5.80;;
16320;SDS011;8269;50.990;4.494;2022-12-07T11:46:17;11.90;;;6.60;;
16320;SDS011;8269;50.990;4.494;2022-12-07T11:48:46;10.70;;;5.43;;
16320;SDS011;8269;50.990;4.494;2022-12-07T11:51:12;10.97;;;5.73;;
16320;SDS011;8269;50.990;4.494;2022-12-07T11:53:46;10.57;;;5.63;;
16320;SDS011;8269;50.990;4.494;2022-12-07T11:56:21;10.57;;;5.70;;
16320;SDS011;8269;50.990;4.494;2022-12-07T11:59:00;11.47;;;5.67;;
16320;SDS011;8269;50.990;4.494;2022-12-07T12:01:51;17.47;;;8.13;;
16320;SDS011;8269;50.990;4.494;2022-12-07T12:07:38;14.13;;;7.93;;
16320;SDS011;8269;50.990;4.494;2022-12-07T12:10:29;14.50;;;8.23;;
16320;SDS011;8269;50.990;4.494;2022-12-07T12:18:53;12.00;;;6.90;;
16320;SDS011;8269;50.990;4.494;2022-12-07T12:21:33;11.63;;;6.00;;
16320;SDS011;8269;50.990;4.494;2022-12-07T12:24:33;10.03;;;4.90;;
16320;SDS011;8269;50.990;4.494;2022-12-07T12:27:17;12.37;;;5.50;;
16320;SDS011;8269;50.990;4.494;2022-12-07T12:29:59;10.87;;;5.00;;
16320;SDS011;8269;50.990;4.494;2022-12-07T12:37:54;9.47;;;4.43;;
16320;SDS011;8269;50.990;4.494;2022-12-07T12:40:43;9.70;;;4.90;;
16320;SDS011;8269;50.990;4.494;2022-12-07T12:43:39;13.17;;;4.30;;
16320;SDS011;8269;50.990;4.494;2022-12-07T12:48:53;10.23;;;3.97;;
16320;SDS011;8269;50.990;4.494;2022-12-07T12:51:55;8.73;;;3.73;;
16320;SDS011;8269;50.990;4.494;2022-12-07T12:54:35;9.53;;;4.13;;
16320;SDS011;8269;50.990;4.494;2022-12-07T13:07:53;6.63;;;3.40;;
16320;SDS011;8269;50.990;4.494;2022-12-07T13:10:41;9.50;;;5.23;;
16320;SDS011;8269;50.990;4.494;2022-12-07T13:26:05;6.40;;;3.13;;
16320;SDS011;8269;50.990;4.494;2022-12-07T13:28:36;7.43;;;3.00;;
16320;SDS011;8269;50.990;4.494;2022-12-07T13:31:13;8.90;;;3.00;;
16320;SDS011;8269;50.990;4.494;2022-12-07T13:33:44;6.20;;;2.83;;
16320;SDS011;8269;50.990;4.494;2022-12-07T13:36:17;7.30;;;2.60;;
16320;SDS011;8269;50.990;4.494;2022-12-07T13:38:50;6.77;;;2.40;;
16320;SDS011;8269;50.990;4.494;2022-12-07T13:41:18;6.57;;;3.00;;
16320;SDS011;8269;50.990;4.494;2022-12-07T13:43:48;7.43;;;2.43;;
16320;SDS011;8269;50.990;4.494;2022-12-07T13:46:15;6.77;;;2.70;;
16320;SDS011;8269;50.990;4.494;2022-12-07T13:48:45;5.63;;;2.70;;
16320;SDS011;8269;50.990;4.494;2022-12-07T13:53:53;7.33;;;3.10;;
16320;SDS011;8269;50.990;4.494;2022-12-07T13:56:33;8.67;;;2.87;;
16320;SDS011;8269;50.990;4.494;2022-12-07T13:59:03;7.30;;;3.30;;
16320;SDS011;8269;50.990;4.494;2022-12-07T14:01:35;8.77;;;3.80;;
16320;SDS011;8269;50.990;4.494;2022-12-07T14:04:27;8.13;;;4.60;;
16320;SDS011;8269;50.990;4.494;2022-12-07T14:06:56;7.57;;;5.53;;
16320;SDS011;8269;50.990;4.494;2022-12-07T14:09:23;12.90;;;6.67;;
16320;SDS011;8269;50.990;4.494;2022-12-07T14:11:52;12.70;;;6.80;;
16320;SDS011;8269;50.990;4.494;2022-12-07T14:14:26;9.70;;;6.77;;
16320;SDS011;8269;50.990;4.494;2022-12-07T14:17:15;8.77;;;7.47;;
16320;SDS011;8269;50.990;4.494;2022-12-07T14:19:48;9.13;;;6.33;;
16320;SDS011;8269;50.990;4.494;2022-12-07T14:22:31;9.10;;;6.93;;
16320;SDS011;8269;50.990;4.494;2022-12-07T14:25:01;8.90;;;7.10;;
16320;SDS011;8269;50.990;4.494;2022-12-07T14:27:52;7.40;;;6.33;;
16320;SDS011;8269;50.990;4.494;2022-12-07T14:30:21;7.40;;;6.07;;
16320;SDS011;8269;50.990;4.494;2022-12-07T14:32:49;8.67;;;6.40;;
16320;SDS011;8269;50.990;4.494;2022-12-07T14:35:20;6.87;;;5.33;;
16320;SDS011;8269;50.990;4.494;2022-12-07T14:37:46;6.97;;;5.33;;
16320;SDS011;8269;50.990;4.494;2022-12-07T14:40:20;9.03;;;5.77;;
16320;SDS011;8269;50.990;4.494;2022-12-07T14:42:48;8.83;;;5.97;;
16320;SDS011;8269;50.990;4.494;2022-12-07T14:45:21;11.93;;;6.40;;
16320;SDS011;8269;50.990;4.494;2022-12-07T14:47:51;8.30;;;5.73;;
16320;SDS011;8269;50.990;4.494;2022-12-07T14:50:17;7.37;;;5.47;;
16320;SDS011;8269;50.990;4.494;2022-12-07T14:52:45;6.70;;;5.50;;
16320;SDS011;8269;50.990;4.494;2022-12-07T14:55:24;6.17;;;4.77;;
16320;SDS011;8269;50.990;4.494;2022-12-07T14:57:52;5.87;;;4.77;;
16320;SDS011;8269;50.990;4.494;2022-12-07T15:00:21;6.90;;;4.60;;
16320;SDS011;8269;50.990;4.494;2022-12-07T15:02:48;7.40;;;4.67;;
16320;SDS011;8269;50.990;4.494;2022-12-07T15:05:15;6.57;;;4.60;;
16320;SDS011;8269;50.990;4.494;2022-12-07T15:07:41;9.30;;;5.10;;
16320;SDS011;8269;50.990;4.494;2022-12-07T15:10:18;5.57;;;3.90;;
16320;SDS011;8269;50.990;4.494;2022-12-07T15:12:46;7.53;;;4.00;;
16320;SDS011;8269;50.990;4.494;2022-12-07T15:15:11;7.10;;;4.07;;
16320;SDS011;8269;50.990;4.494;2022-12-07T15:17:41;5.63;;;3.40;;
16320;SDS011;8269;50.990;4.494;2022-12-07T15:20:11;4.63;;;3.10;;
16320;SDS011;8269;50.990;4.494;2022-12-07T15:22:38;7.37;;;3.60;;
16320;SDS011;8269;50.990;4.494;2022-12-07T15:25:04;7.83;;;3.47;;
16320;SDS011;8269;50.990;4.494;2022-12-07T15:27:30;6.37;;;3.23;;
16320;SDS011;8269;50.990;4.494;2022-12-07T15:29:56;8.67;;;3.10;;
16320;SDS011;8269;50.990;4.494;2022-12-07T15:32:22;6.63;;;3.00;;
16320;SDS011;8269;50.990;4.494;2022-12-07T15:34:48;6.57;;;3.30;;
16320;SDS011;8269;50.990;4.494;2022-12-07T15:37:15;5.47;;;2.60;;
16320;SDS011;8269;50.990;4.494;2022-12-07T15:39:41;7.27;;;2.90;;
16320;SDS011;8269;50.990;4.494;2022-12-07T15:42:06;4.73;;;2.70;;
16320;SDS011;8269;50.990;4.494;2022-12-07T15:44:32;6.47;;;2.70;;
16320;SDS011;8269;50.990;4.494;2022-12-07T15:47:17;8.87;;;3.83;;
16320;SDS011;8269;50.990;4.494;2022-12-07T15:49:42;8.67;;;4.07;;
16320;SDS011;8269;50.990;4.494;2022-12-07T15:52:08;6.63;;;2.40;;
16320;SDS011;8269;50.990;4.494;2022-12-07T15:54:34;4.90;;;2.30;;
16320;SDS011;8269;50.990;4.494;2022-12-07T15:57:00;7.23;;;3.00;;
16320;SDS011;8269;50.990;4.494;2022-12-07T15:59:26;6.47;;;2.87;;
16320;SDS011;8269;50.990;4.494;2022-12-07T16:01:53;5.97;;;2.57;;
16320;SDS011;8269;50.990;4.494;2022-12-07T16:04:20;7.43;;;2.83;;
16320;SDS011;8269;50.990;4.494;2022-12-07T16:06:46;5.63;;;2.60;;
16320;SDS011;8269;50.990;4.494;2022-12-07T16:09:12;6.53;;;2.70;;
16320;SDS011;8269;50.990;4.494;2022-12-07T16:11:37;6.27;;;2.40;;
16320;SDS011;8269;50.990;4.494;2022-12-07T16:14:03;6.13;;;2.63;;
16320;SDS011;8269;50.990;4.494;2022-12-07T16:16:30;9.47;;;3.67;;
16320;SDS011;8269;50.990;4.494;2022-12-07T16:18:56;8.00;;;3.60;;
16320;SDS011;8269;50.990;4.494;2022-12-07T16:21:23;9.50;;;3.87;;
16320;SDS011;8269;50.990;4.494;2022-12-07T16:23:49;8.40;;;4.73;;
16320;SDS011;8269;50.990;4.494;2022-12-07T16:26:19;9.17;;;4.50;;
16320;SDS011;8269;50.990;4.494;2022-12-07T16:28:48;7.70;;;3.43;;
16320;SDS011;8269;50.990;4.494;2022-12-07T16:31:15;7.70;;;3.47;;
16320;SDS011;8269;50.990;4.494;2022-12-07T16:33:42;6.10;;;3.37;;
16320;SDS011;8269;50.990;4.494;2022-12-07T16:36:09;8.43;;;3.40;;
16320;SDS011;8269;50.990;4.494;2022-12-07T16:38:36;9.97;;;4.77;;
16320;SDS011;8269;50.990;4.494;2022-12-07T16:41:02;10.57;;;4.70;;
16320;SDS011;8269;50.990;4.494;2022-12-07T16:43:29;9.27;;;4.20;;
16320;SDS011;8269;50.990;4.494;2022-12-07T16:45:55;6.43;;;3.90;;
16320;SDS011;8269;50.990;4.494;2022-12-07T16:48:21;7.80;;;4.27;;
16320;SDS011;8269;50.990;4.494;2022-12-07T16:50:47;6.90;;;4.03;;
16320;SDS011;8269;50.990;4.494;2022-12-07T16:53:13;9.67;;;4.47;;
16320;SDS011;8269;50.990;4.494;2022-12-07T16:55:41;8.23;;;3.33;;
16320;SDS011;8269;50.990;4.494;2022-12-07T16:58:12;6.73;;;3.53;;
16320;SDS011;8269;50.990;4.494;2022-12-07T17:00:43;6.67;;;3.27;;
16320;SDS011;8269;50.990;4.494;2022-12-07T17:03:41;6.27;;;3.20;;